Moment Of Zen — WDH6746 — position and weather

sailwx.info

Track history (hours):
 
Tides and Currents Weather Stations Pressure Air Temp Water Temp Dewpoint Dewpoint Depression Visibility Wind Speed Wind Dir Waves Ship Positions

Moment Of Zen

Owner: Schroath, Frederick W, Green Cove Springs, FL. More information available from US FCC via Universal Licensing System and Coast Guard Vessel Documentation Center.

Last reported at 2017-Oct-02 22:26 UTC. Time now 2017-Nov-20 02:10 UTC.
Position N 38°58' W 076°29'.
Warning: this ship's position is 48 days out of date.

Length 11 m.

Type: Pleasure craft. MMSI: 367641240.

Date/timePositionNaut miles runAvg speedWind from/ knotsBaromVisibWave heightAir tempDewpointWater temp
2017-Oct-02 22:26N 38°58' W 076°29'0 0.0
2017-Oct-02 21:56N 38°58' W 076°29'0 0.0
2017-Oct-02 21:29N 38°58' W 076°29'0 0.0
2017-Oct-02 20:59N 38°58' W 076°29'1 1.3
2017-Oct-02 20:30N 38°58' W 076°28'3 6.1
2017-Oct-02 20:00N 38°55' W 076°26'54 2.3
2017-Oct-01 20:49N 38°02' W 076°24'2 6.2
2017-Oct-01 20:27N 38°00' W 076°26'2 5.2
2017-Oct-01 20:00N 37°59' W 076°29'0 0.2
2017-Oct-01 19:30N 37°59' W 076°29'3 5.3
2017-Oct-01 18:58N 38°01' W 076°26'51 1.0
2017-Sep-29 15:32N 38°42' W 077°05'0 5.9
2017-Sep-29 15:28N 38°42' W 077°04'3 5.2
2017-Sep-29 14:54N 38°44' W 077°02'3 6.3
2017-Sep-29 14:29N 38°47' W 077°02'3 6.6
2017-Sep-29 13:59N 38°50' W 077°02'2 0.0
2017-Sep-27 14:32N 38°52' W 077°01'0 0.0
2017-Sep-27 14:29N 38°52' W 077°01'0 0.0
2017-Sep-27 13:59N 38°52' W 077°01'1 3.0
2017-Sep-27 13:30N 38°51' W 077°01'3 6.0
2017-Sep-27 12:59N 38°48' W 077°02'1 0.0
2017-Sep-25 20:46N 38°47' W 077°01'0 0.0
2017-Sep-25 20:25N 38°47' W 077°01'0 0.0
2017-Sep-25 19:52N 38°47' W 077°01'0 0.0
2017-Sep-25 19:25N 38°47' W 077°01'0 0.0
2017-Sep-25 18:55N 38°47' W 077°01'0 0.2
2017-Sep-25 18:29N 38°47' W 077°01'5 4.6
2017-Sep-25 17:18N 38°42' W 077°04'45 1.6
2017-Sep-24 13:55N 38°06' W 076°29'4 0.2
2017-Sep-23 20:30N 38°05' W 076°25'  
Track history (hours):
 
Tides and Currents Weather Stations Pressure Air Temp Water Temp Dewpoint Dewpoint Depression Visibility Wind Speed Wind Dir Waves Ship Positions

Moment Of Zen

Owner: Schroath, Frederick W, Green Cove Springs, FL. More information available from US FCC via Universal Licensing System and Coast Guard Vessel Documentation Center.

Last reported at 2017-Oct-02 22:26 UTC. Time now 2017-Nov-20 02:10 UTC.
Position N 38°58' W 076°29'.
Warning: this ship's position is 48 days out of date.

Length 11 m.

Type: Pleasure craft. MMSI: 367641240.

Date/timePositionNaut miles runAvg speedWind from/ knotsBaromVisibWave heightAir tempDewpointWater temp
2017-Oct-02 22:26N 38°58' W 076°29'0 0.0
2017-Oct-02 21:56N 38°58' W 076°29'0 0.0
2017-Oct-02 21:29N 38°58' W 076°29'0 0.0
2017-Oct-02 20:59N 38°58' W 076°29'1 1.3
2017-Oct-02 20:30N 38°58' W 076°28'3 6.1
2017-Oct-02 20:00N 38°55' W 076°26'54 2.3
2017-Oct-01 20:49N 38°02' W 076°24'2 6.2
2017-Oct-01 20:27N 38°00' W 076°26'2 5.2
2017-Oct-01 20:00N 37°59' W 076°29'0 0.2
2017-Oct-01 19:30N 37°59' W 076°29'3 5.3
2017-Oct-01 18:58N 38°01' W 076°26'51 1.0
2017-Sep-29 15:32N 38°42' W 077°05'0 5.9
2017-Sep-29 15:28N 38°42' W 077°04'3 5.2
2017-Sep-29 14:54N 38°44' W 077°02'3 6.3
2017-Sep-29 14:29N 38°47' W 077°02'3 6.6
2017-Sep-29 13:59N 38°50' W 077°02'2 0.0
2017-Sep-27 14:32N 38°52' W 077°01'0 0.0
2017-Sep-27 14:29N 38°52' W 077°01'0 0.0
2017-Sep-27 13:59N 38°52' W 077°01'1 3.0
2017-Sep-27 13:30N 38°51' W 077°01'3 6.0
2017-Sep-27 12:59N 38°48' W 077°02'1 0.0
2017-Sep-25 20:46N 38°47' W 077°01'0 0.0
2017-Sep-25 20:25N 38°47' W 077°01'0 0.0
2017-Sep-25 19:52N 38°47' W 077°01'0 0.0
2017-Sep-25 19:25N 38°47' W 077°01'0 0.0
2017-Sep-25 18:55N 38°47' W 077°01'0 0.2
2017-Sep-25 18:29N 38°47' W 077°01'5 4.6
2017-Sep-25 17:18N 38°42' W 077°04'45 1.6
2017-Sep-24 13:55N 38°06' W 076°29'4 0.2
2017-Sep-23 20:30N 38°05' W 076°25'  

Dump ship's entire track history